Bly, North Carolina
Current Conditions -  °F | °C
As of 5:35 PM on Tuesday 21 Oct 2014 (Local Time) from KGEV Reporting Station
Overcast Overcast  
Wind Chill: 51°   Ceiling: 5000
Heat Index: 51°   Visibility: 10mi
Dew Point: 34°   Wind: 12mph
Humidity: 52%   Direction: 320°NW
Pressure: 29.95"   Gusts: 23mph
Location:  36.524°N, 81.538°W
Report Text: KGEV 212135Z AUTO 32010G20KT 280V340 10SM OVC050 11/01 A2995 RMK AO2 T01060010
Loading
Personal Weather Stations






























Interactive Weather Map
Tropical Storm Tracking
New forecast layout! Learn more

10-Day Weather Forecast

Advertisements
Track Severe Weather on mobile